sensor_id;sensor_type;location;lat;lon;timestamp;P1;durP1;ratioP1;P2;durP2;ratioP2
74044;SDS011;62389;51.412;5.436;2024-01-10T00:01:24;6.15;;;3.05;;
74044;SDS011;62389;51.412;5.436;2024-01-10T00:03:52;6.38;;;3.33;;
74044;SDS011;62389;51.412;5.436;2024-01-10T00:06:19;5.95;;;3.40;;
74044;SDS011;62389;51.412;5.436;2024-01-10T00:08:45;7.13;;;3.13;;
74044;SDS011;62389;51.412;5.436;2024-01-10T00:11:10;6.30;;;3.85;;
74044;SDS011;62389;51.412;5.436;2024-01-10T00:13:35;4.82;;;3.17;;
74044;SDS011;62389;51.412;5.436;2024-01-10T00:16:01;7.60;;;3.58;;
74044;SDS011;62389;51.412;5.436;2024-01-10T00:18:26;7.85;;;3.63;;
74044;SDS011;62389;51.412;5.436;2024-01-10T00:20:51;4.43;;;3.08;;
74044;SDS011;62389;51.412;5.436;2024-01-10T00:23:20;6.30;;;3.28;;
74044;SDS011;62389;51.412;5.436;2024-01-10T00:25:47;6.75;;;3.55;;
74044;SDS011;62389;51.412;5.436;2024-01-10T00:28:12;4.90;;;3.53;;
74044;SDS011;62389;51.412;5.436;2024-01-10T00:30:38;8.73;;;3.88;;
74044;SDS011;62389;51.412;5.436;2024-01-10T00:33:04;7.00;;;2.75;;
74044;SDS011;62389;51.412;5.436;2024-01-10T00:35:30;5.50;;;2.60;;
74044;SDS011;62389;51.412;5.436;2024-01-10T00:37:56;6.07;;;3.03;;
74044;SDS011;62389;51.412;5.436;2024-01-10T00:40:21;5.85;;;3.03;;
74044;SDS011;62389;51.412;5.436;2024-01-10T00:42:47;7.38;;;3.75;;
74044;SDS011;62389;51.412;5.436;2024-01-10T00:45:12;7.15;;;3.72;;
74044;SDS011;62389;51.412;5.436;2024-01-10T00:47:38;14.25;;;3.72;;
74044;SDS011;62389;51.412;5.436;2024-01-10T00:50:03;7.80;;;3.33;;
74044;SDS011;62389;51.412;5.436;2024-01-10T00:52:29;7.95;;;3.38;;
74044;SDS011;62389;51.412;5.436;2024-01-10T00:54:54;6.40;;;3.05;;
74044;SDS011;62389;51.412;5.436;2024-01-10T00:57:20;5.43;;;3.05;;
74044;SDS011;62389;51.412;5.436;2024-01-10T00:59:45;6.22;;;2.90;;
74044;SDS011;62389;51.412;5.436;2024-01-10T01:02:10;6.43;;;3.35;;
74044;SDS011;62389;51.412;5.436;2024-01-10T01:04:36;5.18;;;2.95;;
74044;SDS011;62389;51.412;5.436;2024-01-10T01:07:01;7.30;;;2.88;;
74044;SDS011;62389;51.412;5.436;2024-01-10T01:09:26;8.20;;;3.83;;
74044;SDS011;62389;51.412;5.436;2024-01-10T01:11:52;4.78;;;2.90;;
74044;SDS011;62389;51.412;5.436;2024-01-10T01:14:17;6.70;;;4.05;;
74044;SDS011;62389;51.412;5.436;2024-01-10T01:16:42;8.40;;;3.20;;
74044;SDS011;62389;51.412;5.436;2024-01-10T01:19:08;5.50;;;3.33;;
74044;SDS011;62389;51.412;5.436;2024-01-10T01:21:33;5.75;;;2.85;;
74044;SDS011;62389;51.412;5.436;2024-01-10T01:23:58;6.20;;;3.85;;
74044;SDS011;62389;51.412;5.436;2024-01-10T01:26:24;4.97;;;2.67;;
74044;SDS011;62389;51.412;5.436;2024-01-10T01:28:49;6.32;;;4.00;;
74044;SDS011;62389;51.412;5.436;2024-01-10T01:31:14;6.43;;;3.50;;
74044;SDS011;62389;51.412;5.436;2024-01-10T01:33:40;6.20;;;3.35;;
74044;SDS011;62389;51.412;5.436;2024-01-10T01:36:05;7.75;;;4.03;;
74044;SDS011;62389;51.412;5.436;2024-01-10T01:38:31;9.93;;;4.38;;
74044;SDS011;62389;51.412;5.436;2024-01-10T01:40:57;11.75;;;4.30;;
74044;SDS011;62389;51.412;5.436;2024-01-10T01:43:23;7.35;;;3.53;;
74044;SDS011;62389;51.412;5.436;2024-01-10T01:45:50;11.38;;;4.10;;
74044;SDS011;62389;51.412;5.436;2024-01-10T01:48:17;9.88;;;4.22;;
74044;SDS011;62389;51.412;5.436;2024-01-10T01:50:44;9.75;;;4.00;;
74044;SDS011;62389;51.412;5.436;2024-01-10T01:53:12;7.05;;;3.47;;
74044;SDS011;62389;51.412;5.436;2024-01-10T01:55:38;8.60;;;4.40;;
74044;SDS011;62389;51.412;5.436;2024-01-10T01:58:04;8.32;;;3.53;;
74044;SDS011;62389;51.412;5.436;2024-01-10T02:00:29;8.05;;;4.38;;
74044;SDS011;62389;51.412;5.436;2024-01-10T02:02:55;6.93;;;3.60;;
74044;SDS011;62389;51.412;5.436;2024-01-10T02:05:23;7.47;;;3.78;;
74044;SDS011;62389;51.412;5.436;2024-01-10T02:07:49;9.02;;;3.50;;
74044;SDS011;62389;51.412;5.436;2024-01-10T02:10:15;10.70;;;4.18;;
74044;SDS011;62389;51.412;5.436;2024-01-10T02:12:40;6.65;;;3.70;;
74044;SDS011;62389;51.412;5.436;2024-01-10T02:15:06;7.18;;;3.78;;
74044;SDS011;62389;51.412;5.436;2024-01-10T02:17:32;6.95;;;3.53;;
74044;SDS011;62389;51.412;5.436;2024-01-10T02:20:13;7.25;;;3.50;;
74044;SDS011;62389;51.412;5.436;2024-01-10T02:22:42;7.25;;;3.38;;
74044;SDS011;62389;51.412;5.436;2024-01-10T02:25:08;6.28;;;3.08;;
74044;SDS011;62389;51.412;5.436;2024-01-10T02:27:37;5.38;;;3.08;;
74044;SDS011;62389;51.412;5.436;2024-01-10T02:30:03;5.60;;;3.58;;
74044;SDS011;62389;51.412;5.436;2024-01-10T02:32:30;7.72;;;3.47;;
74044;SDS011;62389;51.412;5.436;2024-01-10T02:34:56;7.43;;;3.60;;
74044;SDS011;62389;51.412;5.436;2024-01-10T02:37:21;4.93;;;3.60;;
74044;SDS011;62389;51.412;5.436;2024-01-10T02:39:47;7.80;;;3.22;;
74044;SDS011;62389;51.412;5.436;2024-01-10T02:42:12;8.15;;;3.22;;
74044;SDS011;62389;51.412;5.436;2024-01-10T02:44:37;6.38;;;3.13;;
74044;SDS011;62389;51.412;5.436;2024-01-10T02:47:03;7.43;;;3.35;;
74044;SDS011;62389;51.412;5.436;2024-01-10T02:49:29;6.35;;;3.35;;
74044;SDS011;62389;51.412;5.436;2024-01-10T02:51:55;4.90;;;2.88;;
74044;SDS011;62389;51.412;5.436;2024-01-10T02:54:20;7.90;;;3.72;;
74044;SDS011;62389;51.412;5.436;2024-01-10T02:56:45;8.93;;;3.60;;
74044;SDS011;62389;51.412;5.436;2024-01-10T02:59:11;6.28;;;3.38;;
74044;SDS011;62389;51.412;5.436;2024-01-10T03:01:36;6.90;;;3.65;;
74044;SDS011;62389;51.412;5.436;2024-01-10T03:04:01;6.95;;;3.70;;
74044;SDS011;62389;51.412;5.436;2024-01-10T03:06:27;6.82;;;3.40;;
74044;SDS011;62389;51.412;5.436;2024-01-10T03:08:52;8.10;;;3.60;;
74044;SDS011;62389;51.412;5.436;2024-01-10T03:11:19;10.27;;;3.58;;
74044;SDS011;62389;51.412;5.436;2024-01-10T03:13:44;8.07;;;3.78;;
74044;SDS011;62389;51.412;5.436;2024-01-10T03:16:11;10.00;;;4.63;;
74044;SDS011;62389;51.412;5.436;2024-01-10T03:18:36;10.98;;;4.55;;
74044;SDS011;62389;51.412;5.436;2024-01-10T03:21:02;8.50;;;4.50;;
74044;SDS011;62389;51.412;5.436;2024-01-10T03:23:27;10.10;;;4.20;;
74044;SDS011;62389;51.412;5.436;2024-01-10T03:25:53;7.22;;;3.67;;
74044;SDS011;62389;51.412;5.436;2024-01-10T03:28:18;8.65;;;4.05;;
74044;SDS011;62389;51.412;5.436;2024-01-10T03:30:43;7.38;;;3.65;;
74044;SDS011;62389;51.412;5.436;2024-01-10T03:33:09;7.32;;;4.78;;
74044;SDS011;62389;51.412;5.436;2024-01-10T03:35:35;7.75;;;3.90;;
74044;SDS011;62389;51.412;5.436;2024-01-10T03:38:00;7.35;;;4.35;;
74044;SDS011;62389;51.412;5.436;2024-01-10T03:40:26;10.30;;;4.25;;
74044;SDS011;62389;51.412;5.436;2024-01-10T03:42:51;12.85;;;4.28;;
74044;SDS011;62389;51.412;5.436;2024-01-10T03:45:17;10.50;;;4.13;;
74044;SDS011;62389;51.412;5.436;2024-01-10T03:47:45;11.35;;;4.28;;
74044;SDS011;62389;51.412;5.436;2024-01-10T03:50:15;9.02;;;4.13;;
74044;SDS011;62389;51.412;5.436;2024-01-10T03:52:41;10.48;;;4.25;;
74044;SDS011;62389;51.412;5.436;2024-01-10T03:55:07;8.98;;;3.50;;
74044;SDS011;62389;51.412;5.436;2024-01-10T03:57:33;8.50;;;3.78;;
74044;SDS011;62389;51.412;5.436;2024-01-10T03:59:58;7.15;;;4.20;;
74044;SDS011;62389;51.412;5.436;2024-01-10T04:02:23;8.55;;;3.38;;
74044;SDS011;62389;51.412;5.436;2024-01-10T04:04:49;9.25;;;3.83;;
74044;SDS011;62389;51.412;5.436;2024-01-10T04:07:15;7.95;;;3.75;;
74044;SDS011;62389;51.412;5.436;2024-01-10T04:09:40;8.95;;;3.78;;
74044;SDS011;62389;51.412;5.436;2024-01-10T04:12:05;7.97;;;3.28;;
74044;SDS011;62389;51.412;5.436;2024-01-10T04:14:31;6.35;;;3.70;;
74044;SDS011;62389;51.412;5.436;2024-01-10T04:16:56;7.82;;;3.65;;
74044;SDS011;62389;51.412;5.436;2024-01-10T04:19:22;5.65;;;2.72;;
74044;SDS011;62389;51.412;5.436;2024-01-10T04:21:47;7.10;;;3.35;;
74044;SDS011;62389;51.412;5.436;2024-01-10T04:24:12;7.63;;;3.33;;
74044;SDS011;62389;51.412;5.436;2024-01-10T04:26:38;7.75;;;3.50;;
74044;SDS011;62389;51.412;5.436;2024-01-10T04:29:03;7.00;;;3.30;;
74044;SDS011;62389;51.412;5.436;2024-01-10T04:31:28;7.60;;;3.25;;
74044;SDS011;62389;51.412;5.436;2024-01-10T04:33:54;6.32;;;3.35;;
74044;SDS011;62389;51.412;5.436;2024-01-10T04:36:20;7.05;;;4.55;;
74044;SDS011;62389;51.412;5.436;2024-01-10T04:38:45;10.63;;;3.20;;
74044;SDS011;62389;51.412;5.436;2024-01-10T04:41:10;6.82;;;3.60;;
74044;SDS011;62389;51.412;5.436;2024-01-10T04:43:36;7.00;;;3.00;;
74044;SDS011;62389;51.412;5.436;2024-01-10T04:46:01;5.32;;;2.67;;
74044;SDS011;62389;51.412;5.436;2024-01-10T04:48:27;7.40;;;5.63;;
74044;SDS011;62389;51.412;5.436;2024-01-10T04:50:52;6.72;;;3.40;;
74044;SDS011;62389;51.412;5.436;2024-01-10T04:53:17;6.72;;;3.70;;
74044;SDS011;62389;51.412;5.436;2024-01-10T04:55:43;4.50;;;2.65;;
74044;SDS011;62389;51.412;5.436;2024-01-10T04:58:09;8.43;;;3.55;;
74044;SDS011;62389;51.412;5.436;2024-01-10T05:00:34;6.53;;;3.08;;
74044;SDS011;62389;51.412;5.436;2024-01-10T05:03:00;5.05;;;3.13;;
74044;SDS011;62389;51.412;5.436;2024-01-10T05:05:25;6.95;;;3.60;;
74044;SDS011;62389;51.412;5.436;2024-01-10T05:07:50;7.60;;;4.50;;
74044;SDS011;62389;51.412;5.436;2024-01-10T05:10:16;6.82;;;3.70;;
74044;SDS011;62389;51.412;5.436;2024-01-10T05:12:41;8.23;;;3.45;;
74044;SDS011;62389;51.412;5.436;2024-01-10T05:15:07;8.52;;;3.42;;
74044;SDS011;62389;51.412;5.436;2024-01-10T05:17:33;6.60;;;3.63;;
74044;SDS011;62389;51.412;5.436;2024-01-10T05:19:58;5.13;;;2.80;;
74044;SDS011;62389;51.412;5.436;2024-01-10T05:22:24;7.68;;;4.30;;
74044;SDS011;62389;51.412;5.436;2024-01-10T05:24:50;7.65;;;3.85;;
74044;SDS011;62389;51.412;5.436;2024-01-10T05:27:15;7.38;;;3.42;;
74044;SDS011;62389;51.412;5.436;2024-01-10T05:29:41;6.50;;;3.28;;
74044;SDS011;62389;51.412;5.436;2024-01-10T05:32:06;7.13;;;3.65;;
74044;SDS011;62389;51.412;5.436;2024-01-10T05:34:31;5.80;;;3.28;;
74044;SDS011;62389;51.412;5.436;2024-01-10T05:36:57;7.65;;;3.08;;
74044;SDS011;62389;51.412;5.436;2024-01-10T05:39:22;8.02;;;4.03;;
74044;SDS011;62389;51.412;5.436;2024-01-10T05:41:48;9.82;;;4.10;;
74044;SDS011;62389;51.412;5.436;2024-01-10T05:44:13;7.22;;;3.58;;
74044;SDS011;62389;51.412;5.436;2024-01-10T05:46:39;7.85;;;3.60;;
74044;SDS011;62389;51.412;5.436;2024-01-10T05:49:05;6.28;;;3.55;;
74044;SDS011;62389;51.412;5.436;2024-01-10T05:51:31;6.80;;;3.22;;
74044;SDS011;62389;51.412;5.436;2024-01-10T05:53:57;6.55;;;3.33;;
74044;SDS011;62389;51.412;5.436;2024-01-10T05:56:22;7.75;;;3.47;;
74044;SDS011;62389;51.412;5.436;2024-01-10T05:58:48;7.47;;;3.63;;
74044;SDS011;62389;51.412;5.436;2024-01-10T06:01:16;8.93;;;4.03;;
74044;SDS011;62389;51.412;5.436;2024-01-10T06:03:42;6.65;;;3.95;;
74044;SDS011;62389;51.412;5.436;2024-01-10T06:06:07;7.88;;;3.20;;
74044;SDS011;62389;51.412;5.436;2024-01-10T06:08:33;6.57;;;2.97;;
74044;SDS011;62389;51.412;5.436;2024-01-10T06:11:02;7.22;;;3.00;;
74044;SDS011;62389;51.412;5.436;2024-01-10T06:13:28;6.75;;;3.42;;
74044;SDS011;62389;51.412;5.436;2024-01-10T06:15:53;10.50;;;3.65;;
74044;SDS011;62389;51.412;5.436;2024-01-10T06:18:19;8.77;;;4.13;;
74044;SDS011;62389;51.412;5.436;2024-01-10T06:20:44;7.20;;;3.63;;
74044;SDS011;62389;51.412;5.436;2024-01-10T06:23:09;10.75;;;3.22;;
74044;SDS011;62389;51.412;5.436;2024-01-10T06:25:35;5.78;;;3.42;;
74044;SDS011;62389;51.412;5.436;2024-01-10T06:28:00;8.35;;;3.75;;
74044;SDS011;62389;51.412;5.436;2024-01-10T06:30:25;6.88;;;3.50;;
74044;SDS011;62389;51.412;5.436;2024-01-10T06:32:51;6.20;;;4.18;;
74044;SDS011;62389;51.412;5.436;2024-01-10T06:35:16;5.75;;;2.95;;
74044;SDS011;62389;51.412;5.436;2024-01-10T06:37:41;6.32;;;3.42;;
74044;SDS011;62389;51.412;5.436;2024-01-10T06:40:09;8.30;;;3.25;;
74044;SDS011;62389;51.412;5.436;2024-01-10T06:42:35;8.70;;;3.40;;
74044;SDS011;62389;51.412;5.436;2024-01-10T06:45:00;7.32;;;3.60;;
74044;SDS011;62389;51.412;5.436;2024-01-10T06:47:25;5.35;;;2.85;;
74044;SDS011;62389;51.412;5.436;2024-01-10T06:49:51;9.82;;;4.55;;
74044;SDS011;62389;51.412;5.436;2024-01-10T06:52:16;9.10;;;3.47;;
74044;SDS011;62389;51.412;5.436;2024-01-10T06:54:42;6.47;;;3.60;;
74044;SDS011;62389;51.412;5.436;2024-01-10T06:57:07;9.52;;;4.70;;
74044;SDS011;62389;51.412;5.436;2024-01-10T06:59:32;7.03;;;3.47;;
74044;SDS011;62389;51.412;5.436;2024-01-10T07:01:58;6.88;;;3.95;;
74044;SDS011;62389;51.412;5.436;2024-01-10T07:04:25;9.85;;;3.78;;
74044;SDS011;62389;51.412;5.436;2024-01-10T07:06:51;9.30;;;3.55;;
74044;SDS011;62389;51.412;5.436;2024-01-10T07:09:16;8.15;;;3.70;;
74044;SDS011;62389;51.412;5.436;2024-01-10T07:11:45;7.10;;;3.67;;
74044;SDS011;62389;51.412;5.436;2024-01-10T07:14:16;6.50;;;4.13;;
74044;SDS011;62389;51.412;5.436;2024-01-10T07:16:41;9.02;;;3.95;;
74044;SDS011;62389;51.412;5.436;2024-01-10T07:19:10;5.72;;;3.72;;
74044;SDS011;62389;51.412;5.436;2024-01-10T07:21:38;9.57;;;4.32;;
74044;SDS011;62389;51.412;5.436;2024-01-10T07:24:04;6.97;;;3.38;;
74044;SDS011;62389;51.412;5.436;2024-01-10T07:26:30;8.45;;;3.83;;
74044;SDS011;62389;51.412;5.436;2024-01-10T07:28:55;7.50;;;3.92;;
74044;SDS011;62389;51.412;5.436;2024-01-10T07:31:20;5.00;;;3.42;;
74044;SDS011;62389;51.412;5.436;2024-01-10T07:33:46;6.32;;;3.58;;
74044;SDS011;62389;51.412;5.436;2024-01-10T07:36:11;5.68;;;3.25;;
74044;SDS011;62389;51.412;5.436;2024-01-10T07:38:36;6.13;;;4.15;;
74044;SDS011;62389;51.412;5.436;2024-01-10T07:41:02;10.07;;;4.38;;
74044;SDS011;62389;51.412;5.436;2024-01-10T07:43:27;9.02;;;3.78;;
74044;SDS011;62389;51.412;5.436;2024-01-10T07:45:52;7.40;;;3.50;;
74044;SDS011;62389;51.412;5.436;2024-01-10T07:48:18;7.78;;;3.92;;
74044;SDS011;62389;51.412;5.436;2024-01-10T07:50:45;7.13;;;4.20;;
74044;SDS011;62389;51.412;5.436;2024-01-10T07:53:10;5.25;;;3.05;;
74044;SDS011;62389;51.412;5.436;2024-01-10T07:55:36;7.18;;;3.30;;
74044;SDS011;62389;51.412;5.436;2024-01-10T07:58:01;5.70;;;3.30;;
74044;SDS011;62389;51.412;5.436;2024-01-10T08:00:26;10.32;;;4.57;;
74044;SDS011;62389;51.412;5.436;2024-01-10T08:02:52;8.52;;;4.07;;
74044;SDS011;62389;51.412;5.436;2024-01-10T08:05:18;7.57;;;3.88;;
74044;SDS011;62389;51.412;5.436;2024-01-10T08:07:46;7.43;;;4.13;;
74044;SDS011;62389;51.412;5.436;2024-01-10T08:10:11;9.05;;;4.45;;
74044;SDS011;62389;51.412;5.436;2024-01-10T08:12:38;10.10;;;4.10;;
74044;SDS011;62389;51.412;5.436;2024-01-10T08:15:04;5.60;;;3.92;;
74044;SDS011;62389;51.412;5.436;2024-01-10T08:17:31;7.75;;;4.57;;
74044;SDS011;62389;51.412;5.436;2024-01-10T08:19:57;7.45;;;4.18;;
74044;SDS011;62389;51.412;5.436;2024-01-10T08:22:23;6.50;;;4.00;;
74044;SDS011;62389;51.412;5.436;2024-01-10T08:24:48;11.43;;;5.07;;
74044;SDS011;62389;51.412;5.436;2024-01-10T08:27:14;7.88;;;3.95;;
74044;SDS011;62389;51.412;5.436;2024-01-10T08:29:39;7.82;;;4.10;;
74044;SDS011;62389;51.412;5.436;2024-01-10T08:32:05;9.85;;;4.55;;
74044;SDS011;62389;51.412;5.436;2024-01-10T08:34:30;8.60;;;4.43;;
74044;SDS011;62389;51.412;5.436;2024-01-10T08:36:56;7.38;;;4.22;;
74044;SDS011;62389;51.412;5.436;2024-01-10T08:39:21;12.88;;;5.03;;
74044;SDS011;62389;51.412;5.436;2024-01-10T08:41:49;10.07;;;4.32;;
74044;SDS011;62389;51.412;5.436;2024-01-10T08:44:14;7.95;;;4.38;;
74044;SDS011;62389;51.412;5.436;2024-01-10T08:46:40;9.15;;;4.22;;
74044;SDS011;62389;51.412;5.436;2024-01-10T08:49:06;9.35;;;4.70;;
74044;SDS011;62389;51.412;5.436;2024-01-10T08:51:31;7.63;;;4.15;;
74044;SDS011;62389;51.412;5.436;2024-01-10T08:53:57;14.30;;;4.70;;
74044;SDS011;62389;51.412;5.436;2024-01-10T08:56:22;9.23;;;4.30;;
74044;SDS011;62389;51.412;5.436;2024-01-10T08:58:49;9.68;;;5.18;;
74044;SDS011;62389;51.412;5.436;2024-01-10T09:01:14;10.98;;;4.80;;
74044;SDS011;62389;51.412;5.436;2024-01-10T09:03:39;9.80;;;4.32;;
74044;SDS011;62389;51.412;5.436;2024-01-10T09:06:05;9.43;;;4.57;;
74044;SDS011;62389;51.412;5.436;2024-01-10T09:08:32;13.02;;;5.03;;
74044;SDS011;62389;51.412;5.436;2024-01-10T09:10:58;9.88;;;5.32;;
74044;SDS011;62389;51.412;5.436;2024-01-10T09:13:24;10.20;;;5.57;;
74044;SDS011;62389;51.412;5.436;2024-01-10T09:15:49;9.55;;;5.32;;
74044;SDS011;62389;51.412;5.436;2024-01-10T09:18:14;8.75;;;4.45;;
74044;SDS011;62389;51.412;5.436;2024-01-10T09:20:40;9.63;;;5.32;;
74044;SDS011;62389;51.412;5.436;2024-01-10T09:23:05;9.30;;;4.60;;
74044;SDS011;62389;51.412;5.436;2024-01-10T09:25:30;10.35;;;5.03;;
74044;SDS011;62389;51.412;5.436;2024-01-10T09:27:56;12.82;;;5.90;;
74044;SDS011;62389;51.412;5.436;2024-01-10T09:30:22;8.57;;;5.22;;
74044;SDS011;62389;51.412;5.436;2024-01-10T09:32:48;11.40;;;5.22;;
74044;SDS011;62389;51.412;5.436;2024-01-10T09:35:14;9.90;;;4.95;;
74044;SDS011;62389;51.412;5.436;2024-01-10T09:37:39;8.65;;;5.22;;
74044;SDS011;62389;51.412;5.436;2024-01-10T09:40:05;10.38;;;4.80;;
74044;SDS011;62389;51.412;5.436;2024-01-10T09:42:32;10.88;;;5.55;;
74044;SDS011;62389;51.412;5.436;2024-01-10T09:45:00;9.07;;;4.95;;
74044;SDS011;62389;51.412;5.436;2024-01-10T09:47:26;12.05;;;5.68;;
74044;SDS011;62389;51.412;5.436;2024-01-10T09:49:52;11.48;;;5.50;;
74044;SDS011;62389;51.412;5.436;2024-01-10T09:52:27;9.75;;;5.28;;
74044;SDS011;62389;51.412;5.436;2024-01-10T09:54:56;13.88;;;6.13;;
74044;SDS011;62389;51.412;5.436;2024-01-10T09:57:25;9.80;;;5.30;;
74044;SDS011;62389;51.412;5.436;2024-01-10T09:59:51;11.90;;;5.20;;
74044;SDS011;62389;51.412;5.436;2024-01-10T10:02:17;9.80;;;5.30;;
74044;SDS011;62389;51.412;5.436;2024-01-10T10:07:21;10.68;;;5.38;;
74044;SDS011;62389;51.412;5.436;2024-01-10T10:09:46;11.07;;;5.20;;
74044;SDS011;62389;51.412;5.436;2024-01-10T10:12:11;14.52;;;5.65;;
74044;SDS011;62389;51.412;5.436;2024-01-10T10:14:37;12.38;;;6.30;;
74044;SDS011;62389;51.412;5.436;2024-01-10T10:17:15;13.25;;;5.85;;
74044;SDS011;62389;51.412;5.436;2024-01-10T10:19:41;17.25;;;5.85;;
74044;SDS011;62389;51.412;5.436;2024-01-10T10:22:08;11.10;;;5.03;;
74044;SDS011;62389;51.412;5.436;2024-01-10T10:24:34;13.50;;;6.47;;
74044;SDS011;62389;51.412;5.436;2024-01-10T10:26:59;10.57;;;5.40;;
74044;SDS011;62389;51.412;5.436;2024-01-10T10:29:25;12.50;;;5.68;;
74044;SDS011;62389;51.412;5.436;2024-01-10T10:31:50;11.27;;;5.68;;
74044;SDS011;62389;51.412;5.436;2024-01-10T10:34:20;13.75;;;6.28;;
74044;SDS011;62389;51.412;5.436;2024-01-10T10:36:47;11.38;;;5.18;;
74044;SDS011;62389;51.412;5.436;2024-01-10T10:39:15;12.73;;;6.10;;
74044;SDS011;62389;51.412;5.436;2024-01-10T10:41:41;11.82;;;6.63;;
74044;SDS011;62389;51.412;5.436;2024-01-10T10:44:08;14.43;;;5.97;;
74044;SDS011;62389;51.412;5.436;2024-01-10T10:46:35;13.85;;;5.97;;
74044;SDS011;62389;51.412;5.436;2024-01-10T10:49:04;12.57;;;6.15;;
74044;SDS011;62389;51.412;5.436;2024-01-10T10:51:35;10.70;;;5.18;;
74044;SDS011;62389;51.412;5.436;2024-01-10T10:54:03;11.27;;;6.03;;
74044;SDS011;62389;51.412;5.436;2024-01-10T10:56:30;13.57;;;6.25;;
74044;SDS011;62389;51.412;5.436;2024-01-10T10:58:57;13.07;;;6.13;;
74044;SDS011;62389;51.412;5.436;2024-01-10T11:01:25;13.00;;;6.25;;
74044;SDS011;62389;51.412;5.436;2024-01-10T11:03:52;12.73;;;5.75;;
74044;SDS011;62389;51.412;5.436;2024-01-10T11:06:17;13.93;;;5.68;;
74044;SDS011;62389;51.412;5.436;2024-01-10T11:08:44;15.60;;;5.95;;
74044;SDS011;62389;51.412;5.436;2024-01-10T11:14:01;13.60;;;6.68;;
74044;SDS011;62389;51.412;5.436;2024-01-10T11:17:14;13.57;;;6.78;;
74044;SDS011;62389;51.412;5.436;2024-01-10T11:25:47;12.05;;;5.82;;
74044;SDS011;62389;51.412;5.436;2024-01-10T11:28:13;12.05;;;6.07;;
74044;SDS011;62389;51.412;5.436;2024-01-10T11:30:48;10.85;;;5.80;;
74044;SDS011;62389;51.412;5.436;2024-01-10T11:38:30;14.35;;;6.07;;
74044;SDS011;62389;51.412;5.436;2024-01-10T11:40:56;12.20;;;6.85;;
74044;SDS011;62389;51.412;5.436;2024-01-10T11:43:22;14.23;;;6.72;;
74044;SDS011;62389;51.412;5.436;2024-01-10T11:45:51;15.10;;;6.57;;
74044;SDS011;62389;51.412;5.436;2024-01-10T11:48:24;15.90;;;6.45;;
74044;SDS011;62389;51.412;5.436;2024-01-10T11:50:52;9.00;;;4.97;;
74044;SDS011;62389;51.412;5.436;2024-01-10T11:56:12;11.27;;;6.43;;
74044;SDS011;62389;51.412;5.436;2024-01-10T11:58:55;15.68;;;6.63;;
74044;SDS011;62389;51.412;5.436;2024-01-10T12:01:27;16.77;;;6.03;;
74044;SDS011;62389;51.412;5.436;2024-01-10T12:03:52;14.02;;;6.25;;
74044;SDS011;62389;51.412;5.436;2024-01-10T12:06:18;12.65;;;6.00;;
74044;SDS011;62389;51.412;5.436;2024-01-10T12:08:45;12.73;;;6.00;;
74044;SDS011;62389;51.412;5.436;2024-01-10T12:11:11;13.55;;;6.28;;
74044;SDS011;62389;51.412;5.436;2024-01-10T12:13:36;16.27;;;6.03;;
74044;SDS011;62389;51.412;5.436;2024-01-10T12:16:02;11.48;;;5.53;;
74044;SDS011;62389;51.412;5.436;2024-01-10T12:18:28;14.52;;;6.03;;
74044;SDS011;62389;51.412;5.436;2024-01-10T12:20:53;12.57;;;6.10;;
74044;SDS011;62389;51.412;5.436;2024-01-10T12:23:19;11.77;;;6.13;;
74044;SDS011;62389;51.412;5.436;2024-01-10T12:25:44;14.10;;;6.40;;
74044;SDS011;62389;51.412;5.436;2024-01-10T12:28:10;15.23;;;6.10;;
74044;SDS011;62389;51.412;5.436;2024-01-10T12:30:35;13.02;;;5.35;;
74044;SDS011;62389;51.412;5.436;2024-01-10T12:33:01;13.73;;;6.43;;
74044;SDS011;62389;51.412;5.436;2024-01-10T12:35:26;11.70;;;6.45;;
74044;SDS011;62389;51.412;5.436;2024-01-10T12:37:55;13.68;;;6.35;;
74044;SDS011;62389;51.412;5.436;2024-01-10T12:40:21;16.02;;;6.40;;
74044;SDS011;62389;51.412;5.436;2024-01-10T12:42:46;11.43;;;6.03;;
74044;SDS011;62389;51.412;5.436;2024-01-10T12:45:21;15.13;;;7.15;;
74044;SDS011;62389;51.412;5.436;2024-01-10T12:47:47;14.75;;;7.28;;
74044;SDS011;62389;51.412;5.436;2024-01-10T12:50:13;13.10;;;5.82;;
74044;SDS011;62389;51.412;5.436;2024-01-10T12:52:38;14.27;;;6.45;;
74044;SDS011;62389;51.412;5.436;2024-01-10T12:55:07;13.57;;;6.47;;
74044;SDS011;62389;51.412;5.436;2024-01-10T12:57:33;15.45;;;7.50;;
74044;SDS011;62389;51.412;5.436;2024-01-10T12:59:58;15.80;;;6.90;;
74044;SDS011;62389;51.412;5.436;2024-01-10T13:02:24;16.77;;;6.50;;
74044;SDS011;62389;51.412;5.436;2024-01-10T13:04:49;13.05;;;6.28;;
74044;SDS011;62389;51.412;5.436;2024-01-10T13:07:15;12.43;;;6.20;;
74044;SDS011;62389;51.412;5.436;2024-01-10T13:09:40;17.60;;;7.07;;
74044;SDS011;62389;51.412;5.436;2024-01-10T13:12:06;14.23;;;7.28;;
74044;SDS011;62389;51.412;5.436;2024-01-10T13:14:32;12.38;;;6.80;;
74044;SDS011;62389;51.412;5.436;2024-01-10T13:16:58;15.75;;;7.03;;
74044;SDS011;62389;51.412;5.436;2024-01-10T13:19:24;17.40;;;7.18;;
74044;SDS011;62389;51.412;5.436;2024-01-10T13:21:50;15.15;;;7.20;;
74044;SDS011;62389;51.412;5.436;2024-01-10T13:24:15;11.75;;;6.53;;
74044;SDS011;62389;51.412;5.436;2024-01-10T13:26:40;13.90;;;7.22;;
74044;SDS011;62389;51.412;5.436;2024-01-10T13:29:05;14.02;;;6.80;;
74044;SDS011;62389;51.412;5.436;2024-01-10T13:31:31;13.52;;;7.63;;
74044;SDS011;62389;51.412;5.436;2024-01-10T13:33:56;18.10;;;7.80;;
74044;SDS011;62389;51.412;5.436;2024-01-10T13:36:21;16.80;;;8.18;;
74044;SDS011;62389;51.412;5.436;2024-01-10T13:38:47;17.40;;;7.47;;
74044;SDS011;62389;51.412;5.436;2024-01-10T13:41:12;17.67;;;7.97;;
74044;SDS011;62389;51.412;5.436;2024-01-10T13:43:38;16.35;;;7.45;;
74044;SDS011;62389;51.412;5.436;2024-01-10T13:46:05;15.15;;;6.65;;
74044;SDS011;62389;51.412;5.436;2024-01-10T13:48:30;13.93;;;7.18;;
74044;SDS011;62389;51.412;5.436;2024-01-10T13:50:56;17.35;;;7.75;;
74044;SDS011;62389;51.412;5.436;2024-01-10T13:53:21;14.80;;;6.82;;
74044;SDS011;62389;51.412;5.436;2024-01-10T13:55:47;18.40;;;7.88;;
74044;SDS011;62389;51.412;5.436;2024-01-10T13:58:12;16.35;;;7.40;;
74044;SDS011;62389;51.412;5.436;2024-01-10T14:00:37;15.48;;;7.30;;
74044;SDS011;62389;51.412;5.436;2024-01-10T14:03:03;14.85;;;7.85;;
74044;SDS011;62389;51.412;5.436;2024-01-10T14:05:29;16.55;;;7.40;;
74044;SDS011;62389;51.412;5.436;2024-01-10T14:07:56;14.73;;;7.05;;
74044;SDS011;62389;51.412;5.436;2024-01-10T14:10:22;18.23;;;8.13;;
74044;SDS011;62389;51.412;5.436;2024-01-10T14:12:47;18.17;;;7.47;;
74044;SDS011;62389;51.412;5.436;2024-01-10T14:15:13;15.77;;;7.40;;
74044;SDS011;62389;51.412;5.436;2024-01-10T14:17:39;19.25;;;7.88;;
74044;SDS011;62389;51.412;5.436;2024-01-10T14:20:05;18.17;;;7.90;;
74044;SDS011;62389;51.412;5.436;2024-01-10T14:22:34;14.23;;;7.00;;
74044;SDS011;62389;51.412;5.436;2024-01-10T14:25:00;15.50;;;6.88;;
74044;SDS011;62389;51.412;5.436;2024-01-10T14:27:26;15.23;;;8.18;;
74044;SDS011;62389;51.412;5.436;2024-01-10T14:29:51;16.85;;;7.57;;
74044;SDS011;62389;51.412;5.436;2024-01-10T14:32:16;16.75;;;7.82;;
74044;SDS011;62389;51.412;5.436;2024-01-10T14:34:42;16.20;;;7.30;;
74044;SDS011;62389;51.412;5.436;2024-01-10T14:37:07;16.85;;;7.78;;
74044;SDS011;62389;51.412;5.436;2024-01-10T14:39:33;13.55;;;7.63;;
74044;SDS011;62389;51.412;5.436;2024-01-10T14:42:03;13.82;;;8.27;;
74044;SDS011;62389;51.412;5.436;2024-01-10T14:44:30;17.83;;;7.90;;
74044;SDS011;62389;51.412;5.436;2024-01-10T14:46:55;16.23;;;7.72;;
74044;SDS011;62389;51.412;5.436;2024-01-10T14:49:21;14.52;;;7.13;;
74044;SDS011;62389;51.412;5.436;2024-01-10T14:51:46;19.83;;;7.68;;
74044;SDS011;62389;51.412;5.436;2024-01-10T14:54:12;16.75;;;7.47;;
74044;SDS011;62389;51.412;5.436;2024-01-10T14:56:38;17.15;;;7.45;;